Time;durP1;ratioP1;P1;durP2;ratioP2;P2;SDS_P1;SDS_P2;PMS_P1;PMS_P2;Temp;Humidity;BMP_temperature;BMP_pressure;BME280_temperature;BME280_humidity;BME280_pressure;Samples;Min_cycle;Max_cycle;Signal;HPM_P1;HPM_P2
2020/12/15 00:01:20;;;;;;;16.50;8.68;;;;;;;;;;5053327;28;20083;-78
2020/12/15 00:03:46;;;;;;;14.48;8.85;;;;;;;;;;5054782;28;20049;-78
2020/12/15 00:06:12;;;;;;;16.40;8.27;;;;;;;;;;5054786;28;20036;-77
2020/12/15 00:08:38;;;;;;;15.55;8.25;;;;;;;;;;5055040;28;20130;-77
2020/12/15 00:11:04;;;;;;;14.55;8.48;;;;;;;;;;5054442;28;20381;-77
2020/12/15 00:13:30;;;;;;;16.15;8.73;;;;;;;;;;5054621;28;20532;-76
2020/12/15 00:15:56;;;;;;;15.90;8.50;;;;;;;;;;5054396;28;20082;-78
2020/12/15 00:18:22;;;;;;;14.13;7.68;;;;;;;;;;5054628;28;20017;-78
2020/12/15 00:20:48;;;;;;;17.08;7.72;;;;;;;;;;5054556;28;20067;-76
2020/12/15 00:23:15;;;;;;;12.73;7.35;;;;;;;;;;5067295;28;20016;-79
2020/12/15 00:25:41;;;;;;;13.48;7.68;;;;;;;;;;5074226;28;20055;-78
2020/12/15 00:28:07;;;;;;;13.80;7.55;;;;;;;;;;5074668;28;20024;-78
2020/12/15 00:30:33;;;;;;;12.77;7.88;;;;;;;;;;5074424;28;20024;-78
2020/12/15 00:32:59;;;;;;;13.18;8.10;;;;;;;;;;5074257;28;20397;-78
2020/12/15 00:35:26;;;;;;;14.32;7.80;;;;;;;;;;5074027;28;20135;-78
2020/12/15 00:37:52;;;;;;;12.63;7.80;;;;;;;;;;5073977;28;20461;-78
2020/12/15 00:40:18;;;;;;;14.68;8.32;;;;;;;;;;5074252;28;20380;-78
2020/12/15 00:42:44;;;;;;;13.75;8.40;;;;;;;;;;5074185;28;20349;-77
2020/12/15 00:45:10;;;;;;;14.43;8.45;;;;;;;;;;5074220;28;20020;-78
2020/12/15 00:47:36;;;;;;;13.73;7.65;;;;;;;;;;5074277;28;20020;-78
2020/12/15 00:50:02;;;;;;;13.95;7.53;;;;;;;;;;5073770;28;20530;-78
2020/12/15 00:52:31;;;;;;;12.45;7.50;;;;;;;;;;5073970;28;20024;-78
2020/12/15 00:54:57;;;;;;;17.00;7.22;;;;;;;;;;5073475;28;20461;-78
2020/12/15 00:57:23;;;;;;;15.57;7.28;;;;;;;;;;5073987;28;20031;-77
2020/12/15 00:59:49;;;;;;;12.63;7.47;;;;;;;;;;5073831;28;20111;-77
2020/12/15 01:02:15;;;;;;;13.95;7.72;;;;;;;;;;5055736;28;20391;-78
2020/12/15 01:04:41;;;;;;;13.25;7.45;;;;;;;;;;5073593;28;20029;-77
2020/12/15 01:07:07;;;;;;;13.38;7.70;;;;;;;;;;5073100;28;20024;-76
2020/12/15 01:09:33;;;;;;;12.10;7.13;;;;;;;;;;5073803;28;20020;-77
2020/12/15 01:11:59;;;;;;;12.00;7.55;;;;;;;;;;5073509;28;20086;-78
2020/12/15 01:14:25;;;;;;;11.13;7.32;;;;;;;;;;5073271;28;20027;-78
2020/12/15 01:16:51;;;;;;;12.93;7.75;;;;;;;;;;5073264;28;20089;-78
2020/12/15 01:19:17;;;;;;;13.05;6.82;;;;;;;;;;5055637;28;20385;-78
2020/12/15 01:21:44;;;;;;;13.23;8.02;;;;;;;;;;5073419;28;20021;-76
2020/12/15 01:24:10;;;;;;;11.02;7.03;;;;;;;;;;5073305;28;20032;-76
2020/12/15 01:26:36;;;;;;;12.85;7.07;;;;;;;;;;5073352;28;20041;-78
2020/12/15 01:29:02;;;;;;;12.15;7.20;;;;;;;;;;5073177;28;20170;-78
2020/12/15 01:31:29;;;;;;;12.02;6.93;;;;;;;;;;5073362;28;20383;-78
2020/12/15 01:33:55;;;;;;;13.45;7.10;;;;;;;;;;5072910;28;20472;-78
2020/12/15 01:36:31;;;;;;;11.15;7.07;;;;;;;;;;5073079;28;20550;-78
2020/12/15 01:38:57;;;;;;;12.18;7.28;;;;;;;;;;5073098;28;20032;-78
2020/12/15 01:41:23;;;;;;;13.43;7.15;;;;;;;;;;5072921;28;20111;-78
2020/12/15 01:43:56;;;;;;;13.77;6.82;;;;;;;;;;5072724;28;20035;-77
2020/12/15 01:46:22;;;;;;;14.55;7.00;;;;;;;;;;5072940;28;20021;-78
2020/12/15 01:48:48;;;;;;;11.82;7.05;;;;;;;;;;5072980;28;20053;-78
2020/12/15 01:51:16;;;;;;;12.40;7.30;;;;;;;;;;5072960;28;20024;-74
2020/12/15 01:53:43;;;;;;;11.18;6.82;;;;;;;;;;5072868;28;20056;-78
2020/12/15 01:56:10;;;;;;;11.77;7.05;;;;;;;;;;5072305;28;20128;-78
2020/12/15 01:58:36;;;;;;;12.73;6.78;;;;;;;;;;5073017;28;20383;-78
2020/12/15 02:01:02;;;;;;;12.38;7.18;;;;;;;;;;5072656;28;20031;-77
2020/12/15 02:03:28;;;;;;;11.23;7.03;;;;;;;;;;5072651;28;20017;-78
2020/12/15 02:05:54;;;;;;;11.90;6.78;;;;;;;;;;5072581;28;20111;-77
2020/12/15 02:08:20;;;;;;;12.50;6.68;;;;;;;;;;5072622;28;20035;-78
2020/12/15 02:10:46;;;;;;;9.75;6.13;;;;;;;;;;5072395;28;20024;-78
2020/12/15 02:13:12;;;;;;;11.50;7.00;;;;;;;;;;5072567;28;20024;-78
2020/12/15 02:15:39;;;;;;;12.88;7.20;;;;;;;;;;5072374;28;20036;-76
2020/12/15 02:18:05;;;;;;;11.32;6.25;;;;;;;;;;5072579;28;20056;-78
2020/12/15 02:20:32;;;;;;;11.50;7.07;;;;;;;;;;5072314;28;20077;-78
2020/12/15 02:22:58;;;;;;;11.00;6.43;;;;;;;;;;5072411;28;20031;-78
2020/12/15 02:25:24;;;;;;;10.23;6.65;;;;;;;;;;5072201;28;20039;-77
2020/12/15 02:27:50;;;;;;;8.57;5.50;;;;;;;;;;5072319;28;20104;-78
2020/12/15 02:30:16;;;;;;;10.57;6.20;;;;;;;;;;5072288;28;20035;-77
2020/12/15 02:32:42;;;;;;;9.38;6.53;;;;;;;;;;5072002;28;20059;-78
2020/12/15 02:35:08;;;;;;;11.63;7.05;;;;;;;;;;5072233;28;20036;-77
2020/12/15 02:37:34;;;;;;;10.93;6.60;;;;;;;;;;5072290;28;20464;-77
2020/12/15 02:40:01;;;;;;;12.50;6.18;;;;;;;;;;5072033;28;20028;-78
2020/12/15 02:42:30;;;;;;;10.88;6.63;;;;;;;;;;5072415;28;20120;-77
2020/12/15 02:44:57;;;;;;;11.43;6.70;;;;;;;;;;5071908;28;20108;-78
2020/12/15 02:47:23;;;;;;;10.50;6.28;;;;;;;;;;5072306;28;20028;-78
2020/12/15 02:49:49;;;;;;;10.40;5.90;;;;;;;;;;5072117;28;20468;-78
2020/12/15 02:52:15;;;;;;;11.13;6.22;;;;;;;;;;5072233;28;20021;-78
2020/12/15 02:54:42;;;;;;;13.52;6.03;;;;;;;;;;5072052;28;20032;-78
2020/12/15 02:57:08;;;;;;;11.48;6.82;;;;;;;;;;5072093;28;20029;-76
2020/12/15 02:59:34;;;;;;;9.95;5.65;;;;;;;;;;5072195;28;20048;-79
2020/12/15 03:02:00;;;;;;;10.35;6.85;;;;;;;;;;5071937;28;20472;-78
2020/12/15 03:04:26;;;;;;;11.60;6.30;;;;;;;;;;5071895;28;20025;-78
2020/12/15 03:06:52;;;;;;;8.93;5.53;;;;;;;;;;5072108;28;20120;-78
2020/12/15 03:09:18;;;;;;;12.73;6.85;;;;;;;;;;5072009;28;20030;-78
2020/12/15 03:11:44;;;;;;;10.73;6.35;;;;;;;;;;5071883;28;20020;-78
2020/12/15 03:14:11;;;;;;;11.75;6.63;;;;;;;;;;5071593;28;20074;-77
2020/12/15 03:16:37;;;;;;;10.68;6.68;;;;;;;;;;5071952;28;20024;-78
2020/12/15 03:19:03;;;;;;;12.10;6.80;;;;;;;;;;5072093;28;20085;-78
2020/12/15 03:21:30;;;;;;;11.10;6.45;;;;;;;;;;5071805;28;20029;-78
2020/12/15 03:23:56;;;;;;;14.25;6.63;;;;;;;;;;5071837;28;20021;-78
2020/12/15 03:26:23;;;;;;;13.48;7.70;;;;;;;;;;5071476;28;20473;-76
2020/12/15 03:28:49;;;;;;;13.75;6.68;;;;;;;;;;5071908;28;20147;-78
2020/12/15 03:31:15;;;;;;;13.75;6.97;;;;;;;;;;5074188;28;20056;-77
2020/12/15 03:33:42;;;;;;;11.88;6.82;;;;;;;;;;5075358;28;20029;-78
2020/12/15 03:36:08;;;;;;;11.77;6.45;;;;;;;;;;5075301;28;20113;-77
2020/12/15 03:38:34;;;;;;;11.02;6.25;;;;;;;;;;5075713;28;20023;-77
2020/12/15 03:41:00;;;;;;;9.43;6.10;;;;;;;;;;5075345;28;20027;-78
2020/12/15 03:43:27;;;;;;;10.75;6.40;;;;;;;;;;5075155;28;20114;-77
2020/12/15 03:45:53;;;;;;;11.50;6.45;;;;;;;;;;5074915;28;20504;-76
2020/12/15 03:48:19;;;;;;;12.65;6.80;;;;;;;;;;5075179;28;20025;-78
2020/12/15 03:50:45;;;;;;;11.70;6.50;;;;;;;;;;5075090;28;20021;-77
2020/12/15 03:53:11;;;;;;;10.52;6.18;;;;;;;;;;5075095;28;20017;-75
2020/12/15 03:55:38;;;;;;;13.93;6.47;;;;;;;;;;5074917;28;20029;-73
2020/12/15 03:58:04;;;;;;;11.02;6.13;;;;;;;;;;5074720;28;20035;-78
2020/12/15 04:00:31;;;;;;;10.50;5.90;;;;;;;;;;5071573;28;20423;-78
2020/12/15 04:02:58;;;;;;;9.73;5.65;;;;;;;;;;5072610;28;20016;-77
2020/12/15 04:05:24;;;;;;;12.52;5.88;;;;;;;;;;5074760;28;20032;-78
2020/12/15 04:07:50;;;;;;;9.77;5.20;;;;;;;;;;5074663;28;20062;-78
2020/12/15 04:10:19;;;;;;;11.68;6.30;;;;;;;;;;5074327;28;20025;-78
2020/12/15 04:12:45;;;;;;;7.90;5.28;;;;;;;;;;5074766;28;20024;-77
2020/12/15 04:15:11;;;;;;;9.68;5.30;;;;;;;;;;5074102;28;20032;-77
2020/12/15 04:17:37;;;;;;;8.55;5.18;;;;;;;;;;5074706;28;20028;-77
2020/12/15 04:20:06;;;;;;;8.75;5.20;;;;;;;;;;5076358;28;20032;-76
2020/12/15 04:22:33;;;;;;;7.18;4.40;;;;;;;;;;5074693;28;20459;-78
2020/12/15 04:25:00;;;;;;;9.25;4.65;;;;;;;;;;5074400;28;20100;-78
2020/12/15 04:27:26;;;;;;;8.90;5.05;;;;;;;;;;5074385;28;20021;-78
2020/12/15 04:29:52;;;;;;;10.68;5.22;;;;;;;;;;5074288;28;20025;-78
2020/12/15 04:32:18;;;;;;;7.68;4.43;;;;;;;;;;5074233;28;20068;-77
2020/12/15 04:34:44;;;;;;;9.75;5.43;;;;;;;;;;5074214;28;20457;-79
2020/12/15 04:37:10;;;;;;;9.40;5.47;;;;;;;;;;5074158;28;20028;-80
2020/12/15 04:39:36;;;;;;;14.80;5.88;;;;;;;;;;5074026;28;20074;-77
2020/12/15 04:42:02;;;;;;;7.45;4.60;;;;;;;;;;5072474;28;20356;-79
2020/12/15 04:44:29;;;;;;;8.88;4.45;;;;;;;;;;5074172;28;20076;-80
2020/12/15 04:47:13;;;;;;;11.60;5.60;;;;;;;;;;5074727;28;20398;-76
2020/12/15 04:49:48;;;;;;;18.42;7.90;;;;;;;;;;5074740;28;20035;-81
2020/12/15 04:52:19;;;;;;;11.98;5.40;;;;;;;;;;5073865;28;20108;-79
2020/12/15 04:54:46;;;;;;;10.25;5.50;;;;;;;;;;5073574;28;20033;-81
2020/12/15 04:57:14;;;;;;;11.05;5.75;;;;;;;;;;5073982;28;20025;-81
2020/12/15 04:59:42;;;;;;;12.38;6.50;;;;;;;;;;5074015;28;20021;-80
2020/12/15 05:02:08;;;;;;;14.50;7.07;;;;;;;;;;5073493;28;20028;-73
2020/12/15 05:04:39;;;;;;;11.00;5.97;;;;;;;;;;5073467;28;20013;-81
2020/12/15 05:07:05;;;;;;;10.40;5.90;;;;;;;;;;5074105;28;20021;-81
2020/12/15 05:09:32;;;;;;;12.65;6.97;;;;;;;;;;5073755;28;20484;-79
2020/12/15 05:11:58;;;;;;;12.57;5.30;;;;;;;;;;5072215;28;20032;-78
2020/12/15 05:14:25;;;;;;;8.85;5.50;;;;;;;;;;5073039;28;20035;-80
2020/12/15 05:16:54;;;;;;;10.88;6.38;;;;;;;;;;5072758;28;20033;-81
2020/12/15 05:19:20;;;;;;;10.68;6.15;;;;;;;;;;5071528;28;20463;-81
2020/12/15 05:21:53;;;;;;;9.85;5.47;;;;;;;;;;5071514;28;20066;-82
2020/12/15 05:24:23;;;;;;;12.02;6.55;;;;;;;;;;5071508;28;20187;-81
2020/12/15 05:26:49;;;;;;;10.60;6.35;;;;;;;;;;5071879;28;20040;-81
2020/12/15 05:29:18;;;;;;;11.68;7.50;;;;;;;;;;5072602;28;20488;-81
2020/12/15 05:31:44;;;;;;;14.10;7.80;;;;;;;;;;5072093;28;20099;-80
2020/12/15 05:34:13;;;;;;;12.38;7.25;;;;;;;;;;5072899;28;20032;-81
2020/12/15 05:36:59;;;;;;;14.75;8.90;;;;;;;;;;5073240;28;20031;-76
2020/12/15 05:39:26;;;;;;;14.77;9.02;;;;;;;;;;5073121;28;20028;-81
2020/12/15 05:42:05;;;;;;;14.50;8.43;;;;;;;;;;5073053;28;20031;-81
2020/12/15 05:44:33;;;;;;;14.40;8.93;;;;;;;;;;5073083;28;20024;-80
2020/12/15 05:47:00;;;;;;;15.45;7.95;;;;;;;;;;5072896;28;20071;-81
2020/12/15 05:49:30;;;;;;;14.15;8.13;;;;;;;;;;5072976;28;20099;-82
2020/12/15 05:51:56;;;;;;;15.23;8.77;;;;;;;;;;5072757;28;20028;-81
2020/12/15 05:54:22;;;;;;;13.57;8.20;;;;;;;;;;5072504;28;20048;-82
2020/12/15 05:56:59;;;;;;;12.88;7.38;;;;;;;;;;5072729;28;20380;-81
2020/12/15 05:59:25;;;;;;;18.67;8.13;;;;;;;;;;5072894;28;20023;-80
2020/12/15 06:01:52;;;;;;;15.18;8.52;;;;;;;;;;5072673;28;20111;-80
2020/12/15 06:04:19;;;;;;;11.57;7.00;;;;;;;;;;5072618;28;20036;-82
2020/12/15 06:06:46;;;;;;;16.33;8.63;;;;;;;;;;5072716;28;20027;-82
2020/12/15 06:09:13;;;;;;;13.90;6.80;;;;;;;;;;5072618;28;20029;-79
2020/12/15 06:11:40;;;;;;;10.77;6.97;;;;;;;;;;5072849;28;20051;-81
2020/12/15 06:14:07;;;;;;;10.25;6.80;;;;;;;;;;5072649;28;20107;-81
2020/12/15 06:16:33;;;;;;;14.77;7.45;;;;;;;;;;5072480;28;20369;-81
2020/12/15 06:18:59;;;;;;;15.13;8.85;;;;;;;;;;5072634;28;20404;-81
2020/12/15 06:21:26;;;;;;;16.98;8.40;;;;;;;;;;5072500;28;20036;-82
2020/12/15 06:24:03;;;;;;;10.48;6.55;;;;;;;;;;5072184;28;20021;-80
2020/12/15 06:26:30;;;;;;;9.52;5.75;;;;;;;;;;5072381;28;20040;-81
2020/12/15 06:29:00;;;;;;;9.05;6.10;;;;;;;;;;5072542;28;20017;-82
2020/12/15 06:31:26;;;;;;;11.88;6.45;;;;;;;;;;5072443;28;20024;-82
2020/12/15 06:33:59;;;;;;;10.05;5.57;;;;;;;;;;5072174;28;20028;-79
2020/12/15 06:36:29;;;;;;;11.82;5.63;;;;;;;;;;5072316;28;20029;-80
2020/12/15 06:38:55;;;;;;;11.63;5.47;;;;;;;;;;5072226;28;20028;-82
2020/12/15 06:41:22;;;;;;;11.60;5.43;;;;;;;;;;5072175;28;20024;-81
2020/12/15 06:43:48;;;;;;;7.53;4.60;;;;;;;;;;5072171;28;20026;-79
2020/12/15 06:46:14;;;;;;;8.52;4.85;;;;;;;;;;5072236;28;20027;-81
2020/12/15 06:48:43;;;;;;;8.05;5.18;;;;;;;;;;5054214;28;20051;-82
2020/12/15 06:51:09;;;;;;;9.63;5.30;;;;;;;;;;5072199;28;20353;-79
2020/12/15 06:53:36;;;;;;;8.52;5.10;;;;;;;;;;5072503;28;20033;-80
2020/12/15 06:56:03;;;;;;;10.93;5.93;;;;;;;;;;5072109;28;20036;-81
2020/12/15 06:58:29;;;;;;;10.90;5.85;;;;;;;;;;5072200;28;20012;-81
2020/12/15 07:00:56;;;;;;;13.77;5.57;;;;;;;;;;5071997;28;20039;-82
2020/12/15 07:03:35;;;;;;;9.27;5.07;;;;;;;;;;5072114;28;20016;-82
2020/12/15 07:06:08;;;;;;;8.75;5.05;;;;;;;;;;5074192;28;20033;-80
2020/12/15 07:08:35;;;;;;;14.43;6.00;;;;;;;;;;5076251;28;20074;-82
2020/12/15 07:11:01;;;;;;;9.50;4.90;;;;;;;;;;5075985;28;20499;-82
2020/12/15 07:13:27;;;;;;;9.88;5.38;;;;;;;;;;5075942;28;20028;-82
2020/12/15 07:15:53;;;;;;;11.70;6.25;;;;;;;;;;5075771;28;20032;-82
2020/12/15 07:18:19;;;;;;;10.43;5.82;;;;;;;;;;5075709;28;20020;-82
2020/12/15 07:20:45;;;;;;;9.88;5.45;;;;;;;;;;5075733;28;20107;-82
2020/12/15 07:23:11;;;;;;;9.80;5.63;;;;;;;;;;5075619;28;20028;-81
2020/12/15 07:25:37;;;;;;;14.20;7.68;;;;;;;;;;5075409;28;20127;-81
2020/12/15 07:28:03;;;;;;;11.95;6.47;;;;;;;;;;5075830;28;20032;-83
2020/12/15 07:30:29;;;;;;;12.55;6.97;;;;;;;;;;5075693;28;20056;-82
2020/12/15 07:32:55;;;;;;;11.48;6.38;;;;;;;;;;5075618;28;20024;-83
2020/12/15 07:35:22;;;;;;;10.90;6.55;;;;;;;;;;5074965;28;20048;-82
2020/12/15 07:37:49;;;;;;;14.40;7.68;;;;;;;;;;5075671;28;20017;-81
2020/12/15 07:40:19;;;;;;;16.63;8.05;;;;;;;;;;5075515;28;20032;-81
2020/12/15 07:42:58;;;;;;;13.00;7.22;;;;;;;;;;5075415;28;20086;-82
2020/12/15 07:45:24;;;;;;;9.57;5.25;;;;;;;;;;5075300;28;20020;-82
2020/12/15 07:47:51;;;;;;;9.98;6.40;;;;;;;;;;5075204;28;20048;-82
2020/12/15 07:50:18;;;;;;;28.48;13.95;;;;;;;;;;5075318;28;20025;-82
2020/12/15 07:52:44;;;;;;;12.75;6.72;;;;;;;;;;5075269;28;20474;-82
2020/12/15 07:55:13;;;;;;;16.27;6.63;;;;;;;;;;5075277;28;20033;-79
2020/12/15 07:57:41;;;;;;;17.88;8.68;;;;;;;;;;5074697;28;20384;-82
2020/12/15 08:00:08;;;;;;;12.07;6.75;;;;;;;;;;5075275;28;20383;-81
2020/12/15 08:02:34;;;;;;;16.83;8.98;;;;;;;;;;5075153;28;20024;-82
2020/12/15 08:05:26;;;;;;;10.85;5.05;;;;;;;;;;5074962;28;20030;-83
2020/12/15 08:08:00;;;;;;;14.18;5.13;;;;;;;;;;5070280;28;20047;-80
2020/12/15 08:10:31;;;;;;;8.15;5.22;;;;;;;;;;5074738;28;20389;-83
2020/12/15 08:12:58;;;;;;;25.58;16.15;;;;;;;;;;5074941;28;20503;-83
2020/12/15 08:15:24;;;;;;;58.17;36.53;;;;;;;;;;5074185;28;20037;-83
2020/12/15 08:17:52;;;;;;;20.40;13.20;;;;;;;;;;5074522;28;20024;-82
2020/12/15 08:20:27;;;;;;;12.57;8.02;;;;;;;;;;5074460;28;20378;-82
2020/12/15 08:23:03;;;;;;;8.77;5.28;;;;;;;;;;5074564;28;20019;-81
2020/12/15 08:25:30;;;;;;;13.75;8.20;;;;;;;;;;5074307;28;20572;-82
2020/12/15 08:28:06;;;;;;;56.53;27.10;;;;;;;;;;5074595;28;20016;-82
2020/12/15 08:30:32;;;;;;;37.97;18.90;;;;;;;;;;5074340;28;20028;-82
2020/12/15 08:32:58;;;;;;;48.10;24.55;;;;;;;;;;5074527;28;20361;-82
2020/12/15 08:35:25;;;;;;;19.23;9.10;;;;;;;;;;5074470;28;20040;-83
2020/12/15 08:38:02;;;;;;;58.10;27.23;;;;;;;;;;5074241;28;20085;-81
2020/12/15 08:40:28;;;;;;;36.75;18.10;;;;;;;;;;5074472;28;20036;-81
2020/12/15 08:42:56;;;;;;;39.90;20.23;;;;;;;;;;5073969;28;20029;-83
2020/12/15 08:45:25;;;;;;;24.30;11.20;;;;;;;;;;5074350;28;20028;-81
2020/12/15 08:47:52;;;;;;;13.95;7.78;;;;;;;;;;5074078;28;20028;-81
2020/12/15 08:50:19;;;;;;;11.75;7.10;;;;;;;;;;5074021;28;20028;-83
2020/12/15 08:52:46;;;;;;;11.45;7.47;;;;;;;;;;5073788;28;20013;-81
2020/12/15 08:55:12;;;;;;;12.82;7.40;;;;;;;;;;5073799;28;20387;-83
2020/12/15 08:57:38;;;;;;;109.75;38.55;;;;;;;;;;5074161;28;20028;-81
2020/12/15 09:00:08;;;;;;;61.85;24.83;;;;;;;;;;5073853;28;20031;-79
2020/12/15 09:02:35;;;;;;;44.35;19.45;;;;;;;;;;5074084;28;20024;-83
2020/12/15 09:05:11;;;;;;;23.60;10.52;;;;;;;;;;5073637;28;20016;-83
2020/12/15 09:07:38;;;;;;;28.60;17.70;;;;;;;;;;5073911;28;20427;-81
2020/12/15 09:10:10;;;;;;;21.05;11.50;;;;;;;;;;5073630;28;20024;-84
2020/12/15 09:12:37;;;;;;;16.88;10.05;;;;;;;;;;5073872;28;20484;-83
2020/12/15 09:15:04;;;;;;;13.82;8.13;;;;;;;;;;5073242;28;20033;-82
2020/12/15 09:17:30;;;;;;;13.05;8.20;;;;;;;;;;5073608;28;20103;-83
2020/12/15 09:19:56;;;;;;;11.95;6.97;;;;;;;;;;5073390;28;20028;-83
2020/12/15 09:22:23;;;;;;;20.95;11.00;;;;;;;;;;5073507;28;20480;-83
2020/12/15 09:24:49;;;;;;;38.78;20.05;;;;;;;;;;5073223;28;20024;-83
2020/12/15 09:27:21;;;;;;;19.88;10.90;;;;;;;;;;5073295;28;20384;-83
2020/12/15 09:29:48;;;;;;;23.10;11.98;;;;;;;;;;5072964;28;20021;-83
2020/12/15 09:32:17;;;;;;;14.65;9.27;;;;;;;;;;5073083;28;20023;-83
2020/12/15 09:34:43;;;;;;;17.48;11.32;;;;;;;;;;5073238;28;20073;-83
2020/12/15 09:37:09;;;;;;;23.33;12.10;;;;;;;;;;5073626;28;20093;-82
2020/12/15 09:39:35;;;;;;;21.25;11.82;;;;;;;;;;5073295;28;20028;-82
2020/12/15 09:42:03;;;;;;;17.60;11.32;;;;;;;;;;5072978;28;20035;-83
2020/12/15 09:44:29;;;;;;;18.75;10.40;;;;;;;;;;5073159;28;20045;-84
2020/12/15 09:46:55;;;;;;;14.32;9.35;;;;;;;;;;5073092;28;20020;-81
2020/12/15 09:49:21;;;;;;;14.10;8.20;;;;;;;;;;5073009;28;20541;-81
2020/12/15 09:51:48;;;;;;;13.23;7.43;;;;;;;;;;5072883;28;20042;-84
2020/12/15 09:54:14;;;;;;;16.27;9.48;;;;;;;;;;5072937;28;20086;-83
2020/12/15 09:56:43;;;;;;;24.83;10.18;;;;;;;;;;5072809;28;20029;-83
2020/12/15 09:59:10;;;;;;;20.63;9.48;;;;;;;;;;5072826;28;20089;-83
2020/12/15 10:01:36;;;;;;;17.88;8.48;;;;;;;;;;5072959;28;20074;-83
2020/12/15 10:04:02;;;;;;;15.20;7.60;;;;;;;;;;5072966;28;20349;-84
2020/12/15 10:06:29;;;;;;;23.63;10.05;;;;;;;;;;5072719;28;20024;-84
2020/12/15 10:08:55;;;;;;;10.55;6.97;;;;;;;;;;5072658;28;20094;-84
2020/12/15 10:11:22;;;;;;;14.40;8.75;;;;;;;;;;5072611;28;20052;-84
2020/12/15 10:13:48;;;;;;;12.40;6.25;;;;;;;;;;5072510;28;20404;-79
2020/12/15 10:16:14;;;;;;;11.80;5.88;;;;;;;;;;5072240;28;20062;-82
2020/12/15 10:18:40;;;;;;;17.67;6.95;;;;;;;;;;5072468;28;20044;-84
2020/12/15 10:21:06;;;;;;;19.58;9.70;;;;;;;;;;5072859;28;20028;-84
2020/12/15 10:23:34;;;;;;;13.70;7.00;;;;;;;;;;5072618;28;20032;-83
2020/12/15 10:26:00;;;;;;;10.25;7.07;;;;;;;;;;5072132;28;20045;-84
2020/12/15 10:28:27;;;;;;;10.63;5.70;;;;;;;;;;5072525;28;20031;-83
2020/12/15 10:30:53;;;;;;;20.23;8.68;;;;;;;;;;5072438;28;20498;-82
2020/12/15 10:33:19;;;;;;;10.57;5.82;;;;;;;;;;5072525;28;20468;-83
2020/12/15 10:35:45;;;;;;;19.15;9.90;;;;;;;;;;5072166;28;20039;-83
2020/12/15 10:38:11;;;;;;;10.98;6.28;;;;;;;;;;5054439;28;20407;-84
2020/12/15 10:40:37;;;;;;;14.10;5.75;;;;;;;;;;5071162;28;20031;-83
2020/12/15 10:43:03;;;;;;;10.40;5.40;;;;;;;;;;5072308;28;20191;-84
2020/12/15 10:45:29;;;;;;;20.98;8.93;;;;;;;;;;5072390;28;20031;-84
2020/12/15 10:47:55;;;;;;;18.98;9.77;;;;;;;;;;5072051;28;20025;-83
2020/12/15 10:50:21;;;;;;;10.35;5.80;;;;;;;;;;5072276;28;20021;-83
2020/12/15 10:52:47;;;;;;;9.45;5.63;;;;;;;;;;5072113;28;20028;-82
2020/12/15 10:55:13;;;;;;;9.45;5.68;;;;;;;;;;5072129;28;20032;-84
2020/12/15 10:57:39;;;;;;;10.93;4.60;;;;;;;;;;5072059;28;20036;-82
2020/12/15 11:00:06;;;;;;;9.90;5.55;;;;;;;;;;5072488;28;20028;-81
2020/12/15 11:02:32;;;;;;;10.70;5.25;;;;;;;;;;5072144;28;20021;-84
2020/12/15 11:04:58;;;;;;;11.65;5.13;;;;;;;;;;5072004;28;20546;-83
2020/12/15 11:07:24;;;;;;;8.48;5.03;;;;;;;;;;5071944;28;20086;-81
2020/12/15 11:09:51;;;;;;;6.30;4.47;;;;;;;;;;5071920;28;20025;-85
2020/12/15 11:12:17;;;;;;;8.73;5.18;;;;;;;;;;5072013;28;20017;-82
2020/12/15 11:14:43;;;;;;;10.25;5.30;;;;;;;;;;5071958;28;20027;-80
2020/12/15 11:17:09;;;;;;;8.30;4.85;;;;;;;;;;5071837;28;20028;-75
2020/12/15 11:19:35;;;;;;;9.82;5.57;;;;;;;;;;5072185;28;20046;-86
2020/12/15 11:22:01;;;;;;;7.13;4.88;;;;;;;;;;5071879;28;20028;-80
2020/12/15 11:24:27;;;;;;;7.72;5.25;;;;;;;;;;5071982;28;20469;-83
2020/12/15 11:26:53;;;;;;;10.98;5.72;;;;;;;;;;5071541;28;20052;-83
2020/12/15 11:29:19;;;;;;;8.15;5.22;;;;;;;;;;5071772;28;20058;-85
2020/12/15 11:31:49;;;;;;;6.57;4.93;;;;;;;;;;5071683;28;20032;-85
2020/12/15 11:34:16;;;;;;;12.35;7.15;;;;;;;;;;5071857;28;20024;-85
2020/12/15 11:36:42;;;;;;;12.38;5.85;;;;;;;;;;5071549;28;20107;-85
2020/12/15 11:39:08;;;;;;;37.45;16.98;;;;;;;;;;5071959;28;20074;-85
2020/12/15 11:41:35;;;;;;;13.90;7.60;;;;;;;;;;5071915;28;20066;-83
2020/12/15 11:44:01;;;;;;;16.67;8.82;;;;;;;;;;5071728;28;20016;-84
2020/12/15 11:46:27;;;;;;;13.23;7.03;;;;;;;;;;5071357;28;20484;-84
2020/12/15 11:48:53;;;;;;;10.93;6.25;;;;;;;;;;5072016;28;20036;-81
2020/12/15 11:51:20;;;;;;;38.97;17.63;;;;;;;;;;5072786;28;20099;-86
2020/12/15 11:53:47;;;;;;;23.00;11.55;;;;;;;;;;5075094;28;20048;-84
2020/12/15 11:56:15;;;;;;;50.25;18.83;;;;;;;;;;5074775;28;20029;-82
2020/12/15 11:58:41;;;;;;;88.35;41.03;;;;;;;;;;5074775;28;20098;-84
2020/12/15 12:01:08;;;;;;;11.02;6.07;;;;;;;;;;5075263;28;20036;-85
2020/12/15 12:03:34;;;;;;;9.02;6.30;;;;;;;;;;5075337;28;20020;-85
2020/12/15 12:06:01;;;;;;;9.70;5.97;;;;;;;;;;5056853;28;20021;-84
2020/12/15 12:08:28;;;;;;;10.07;6.32;;;;;;;;;;5074888;28;20423;-84
2020/12/15 12:10:54;;;;;;;11.32;6.47;;;;;;;;;;5074520;28;20021;-83
2020/12/15 12:13:20;;;;;;;36.65;13.18;;;;;;;;;;5074921;28;20028;-84
2020/12/15 12:15:46;;;;;;;10.95;6.35;;;;;;;;;;5074347;28;20043;-83
2020/12/15 12:18:12;;;;;;;7.38;5.30;;;;;;;;;;5074674;28;20017;-84
2020/12/15 12:20:38;;;;;;;10.30;5.57;;;;;;;;;;5056669;28;20472;-76
2020/12/15 12:23:05;;;;;;;11.13;5.75;;;;;;;;;;5074892;28;20021;-84
2020/12/15 12:25:31;;;;;;;12.52;6.00;;;;;;;;;;5074590;28;20051;-84
2020/12/15 12:28:06;;;;;;;11.07;6.28;;;;;;;;;;5074642;28;20082;-84
2020/12/15 12:30:32;;;;;;;20.13;9.27;;;;;;;;;;5057106;28;20527;-84
2020/12/15 12:32:58;;;;;;;23.45;10.30;;;;;;;;;;5074342;28;20020;-84
2020/12/15 12:35:24;;;;;;;12.88;6.80;;;;;;;;;;5074246;28;20031;-82
2020/12/15 12:37:50;;;;;;;14.30;5.35;;;;;;;;;;5074525;28;20016;-84
2020/12/15 12:40:16;;;;;;;36.38;15.00;;;;;;;;;;5074471;28;20028;-84
2020/12/15 12:42:44;;;;;;;37.28;14.32;;;;;;;;;;5074103;28;20031;-74
2020/12/15 12:45:10;;;;;;;83.40;27.27;;;;;;;;;;5074754;28;20498;-84
2020/12/15 12:47:36;;;;;;;207.38;68.68;;;;;;;;;;5074340;28;20021;-80
2020/12/15 12:50:03;;;;;;;99.90;35.00;;;;;;;;;;5073822;28;20511;-84
2020/12/15 12:52:29;;;;;;;110.90;39.97;;;;;;;;;;5073866;28;20028;-82
2020/12/15 12:54:55;;;;;;;32.72;15.27;;;;;;;;;;5073907;28;20023;-82
2020/12/15 12:57:21;;;;;;;63.60;25.65;;;;;;;;;;5074077;28;20037;-82
2020/12/15 12:59:47;;;;;;;23.85;9.85;;;;;;;;;;5073760;28;20038;-82
2020/12/15 13:02:14;;;;;;;17.45;8.05;;;;;;;;;;5073432;28;20365;-82
2020/12/15 13:04:40;;;;;;;13.82;6.78;;;;;;;;;;5073320;28;20457;-80
2020/12/15 13:07:06;;;;;;;15.95;7.10;;;;;;;;;;5073863;28;20020;-82
2020/12/15 13:09:33;;;;;;;12.18;6.95;;;;;;;;;;5073743;28;20017;-83
2020/12/15 13:11:59;;;;;;;18.25;8.23;;;;;;;;;;5073580;28;20113;-84
2020/12/15 13:14:25;;;;;;;30.30;13.73;;;;;;;;;;5073604;28;20051;-83
2020/12/15 13:16:51;;;;;;;23.20;10.65;;;;;;;;;;5073750;28;20603;-81
2020/12/15 13:19:18;;;;;;;52.15;21.27;;;;;;;;;;5073551;28;20052;-80
2020/12/15 13:21:45;;;;;;;43.20;17.42;;;;;;;;;;5073433;28;20031;-84
2020/12/15 13:24:11;;;;;;;18.80;9.05;;;;;;;;;;5073368;28;20032;-83
2020/12/15 13:26:40;;;;;;;40.35;15.95;;;;;;;;;;5073348;28;20055;-81
2020/12/15 13:29:06;;;;;;;8.85;5.93;;;;;;;;;;5073540;28;20365;-83
2020/12/15 13:31:32;;;;;;;12.00;5.82;;;;;;;;;;5073294;28;20024;-81
2020/12/15 13:34:00;;;;;;;13.35;7.18;;;;;;;;;;5073185;28;20027;-81
2020/12/15 13:36:26;;;;;;;10.20;4.50;;;;;;;;;;5072864;28;20086;-80
2020/12/15 13:38:52;;;;;;;7.43;4.70;;;;;;;;;;5073211;28;20020;-83
2020/12/15 13:41:19;;;;;;;31.13;11.50;;;;;;;;;;5073245;28;20039;-83
2020/12/15 13:43:45;;;;;;;99.32;33.88;;;;;;;;;;5073091;28;20025;-82
2020/12/15 13:46:12;;;;;;;26.55;10.50;;;;;;;;;;5072869;28;20021;-83
2020/12/15 13:48:38;;;;;;;22.45;10.98;;;;;;;;;;5073213;28;20025;-83
2020/12/15 13:51:04;;;;;;;38.75;18.45;;;;;;;;;;5073057;28;20017;-76
2020/12/15 13:53:32;;;;;;;9.38;5.93;;;;;;;;;;5072961;28;20024;-84
2020/12/15 13:55:58;;;;;;;23.45;13.07;;;;;;;;;;5072749;28;20036;-80
2020/12/15 13:58:24;;;;;;;85.35;29.85;;;;;;;;;;5072781;28;20074;-82
2020/12/15 14:00:50;;;;;;;114.50;47.88;;;;;;;;;;5072893;28;20020;-84
2020/12/15 14:03:16;;;;;;;72.38;30.67;;;;;;;;;;5072611;28;20032;-82
2020/12/15 14:05:42;;;;;;;79.75;34.88;;;;;;;;;;5072701;28;20029;-81
2020/12/15 14:08:08;;;;;;;73.13;31.55;;;;;;;;;;5073114;28;20021;-77
2020/12/15 14:10:35;;;;;;;66.57;26.98;;;;;;;;;;5072877;28;20021;-83
2020/12/15 14:13:01;;;;;;;121.25;38.33;;;;;;;;;;5072353;28;20024;-83
2020/12/15 14:15:27;;;;;;;83.13;24.05;;;;;;;;;;5072181;28;20067;-82
2020/12/15 14:17:53;;;;;;;202.02;54.78;;;;;;;;;;5072493;28;20541;-82
2020/12/15 14:20:19;;;;;;;45.92;15.25;;;;;;;;;;5072973;28;20032;-83
2020/12/15 14:22:45;;;;;;;15.00;7.88;;;;;;;;;;5072555;28;20021;-83
2020/12/15 14:25:11;;;;;;;61.53;22.88;;;;;;;;;;5072470;28;20052;-81
2020/12/15 14:27:37;;;;;;;53.60;19.65;;;;;;;;;;5072571;28;20028;-82